createdAt,value
2017-01-23T00:00:51.283Z,97.33
2017-01-23T00:01:59.938Z,97.33
2017-01-23T00:03:08.595Z,97.42
2017-01-23T00:04:17.239Z,97.42
2017-01-23T00:05:25.896Z,97.33
2017-01-23T00:06:34.557Z,97.05
2017-01-23T00:07:43.210Z,97.71
2017-01-23T00:08:51.862Z,97.61
2017-01-23T00:10:00.509Z,98.36
2017-01-23T00:11:09.156Z,98.32
2017-01-23T00:12:17.819Z,98.89
2017-01-23T00:13:26.469Z,98.79
2017-01-23T00:14:35.120Z,98.6
2017-01-23T00:15:43.775Z,98.89
2017-01-23T00:16:52.418Z,98.13
2017-01-23T00:18:01.066Z,98.23
2017-01-23T00:19:09.749Z,97.33
2017-01-23T00:20:18.399Z,97.71
2017-01-23T00:21:27.047Z,98.04
2017-01-23T00:22:35.693Z,97.38
2017-01-23T00:23:44.341Z,97.24
2017-01-23T00:24:52.991Z,97.61
2017-01-23T00:26:01.638Z,96.67
2017-01-23T00:27:10.289Z,96.67
2017-01-23T00:28:18.930Z,97.24
2017-01-23T00:29:27.573Z,96.58
2017-01-23T00:30:36.225Z,97.14
2017-01-23T00:31:44.869Z,97.33
2017-01-23T00:32:53.521Z,97.42
2017-01-23T00:34:02.176Z,97.8
2017-01-23T00:35:10.827Z,97.33
2017-01-23T00:36:19.474Z,97.33
2017-01-23T00:37:28.118Z,97.42
2017-01-23T00:38:36.774Z,97.61
2017-01-23T00:39:45.420Z,97.8
2017-01-23T00:40:54.066Z,97.52
2017-01-23T00:42:02.711Z,97.71
2017-01-23T00:43:11.359Z,97.42
2017-01-23T00:44:20.008Z,97.42
2017-01-23T00:45:28.652Z,97.8
2017-01-23T00:46:37.299Z,97.33
2017-01-23T00:47:45.939Z,97.24
2017-01-23T00:48:54.608Z,97.33
2017-01-23T00:50:03.255Z,97.71
2017-01-23T00:51:11.909Z,97.71
2017-01-23T00:52:20.556Z,97.61
2017-01-23T00:53:29.212Z,97.89
2017-01-23T00:54:37.855Z,97.71
2017-01-23T00:55:46.498Z,97.42
2017-01-23T00:56:55.143Z,97.24
2017-01-23T00:58:04.174Z,97.8
2017-01-23T00:59:12.821Z,97.14
2017-01-23T01:00:21.465Z,97.42
2017-01-23T01:01:30.113Z,98.23
2017-01-23T01:02:38.767Z,98.08
2017-01-23T01:03:47.411Z,98.41
2017-01-23T01:04:56.060Z,98.98
2017-01-23T01:06:04.743Z,98.51
2017-01-23T01:07:13.385Z,98.98
2017-01-23T01:08:22.039Z,98.89
2017-01-23T01:09:30.686Z,98.23
2017-01-23T01:10:39.332Z,98.32
2017-01-23T01:11:48.008Z,97.33
2017-01-23T01:12:56.681Z,97.24
2017-01-23T01:14:05.328Z,97.33
2017-01-23T01:15:13.980Z,97.14
2017-01-23T01:16:22.628Z,97.42
2017-01-23T01:17:31.268Z,97.71
2017-01-23T01:18:39.919Z,97.42
2017-01-23T01:19:48.565Z,97.61
2017-01-23T01:20:57.215Z,98.18
2017-01-23T01:22:05.861Z,97.61
2017-01-23T01:23:14.519Z,97.42
2017-01-23T01:24:23.161Z,97.05
2017-01-23T01:25:31.806Z,97.33
2017-01-23T01:26:40.445Z,97.14
2017-01-23T01:27:49.096Z,97.24
2017-01-23T01:28:57.739Z,97.52
2017-01-23T01:30:06.388Z,97.14
2017-01-23T01:31:15.034Z,97.89
2017-01-23T01:32:23.682Z,97.99
2017-01-23T01:33:32.324Z,98.08
2017-01-23T01:34:40.977Z,98.27
2017-01-23T01:35:49.623Z,98.41
2017-01-23T01:36:58.268Z,97.99
2017-01-23T01:38:07.304Z,98.04
2017-01-23T01:39:15.951Z,98.23
2017-01-23T01:40:24.598Z,98.23
2017-01-23T01:41:33.245Z,98.04
2017-01-23T01:42:41.891Z,98.6
2017-01-23T01:43:50.538Z,98.32
2017-01-23T01:44:59.184Z,98.51
2017-01-23T01:46:07.837Z,98.32
2017-01-23T01:47:16.480Z,98.13
2017-01-23T01:48:25.156Z,98.23
2017-01-23T01:49:33.833Z,98.04
2017-01-23T01:50:42.479Z,97.56
2017-01-23T01:51:51.132Z,97.38
2017-01-23T01:52:59.785Z,97.71
2017-01-23T01:54:08.455Z,97.38
2017-01-23T01:55:17.102Z,97.38
2017-01-23T01:56:25.780Z,97.42
2017-01-23T01:57:34.430Z,97.24
2017-01-23T01:58:43.074Z,97.8
2017-01-23T01:59:52.102Z,97.38
2017-01-23T02:01:00.774Z,97.33
2017-01-23T02:02:09.422Z,97.14
2017-01-23T02:03:18.070Z,97.33
2017-01-23T02:04:26.718Z,98.18
2017-01-23T02:05:35.364Z,98.18
2017-01-23T02:06:44.006Z,97.99
2017-01-23T02:07:52.657Z,97.42
2017-01-23T02:09:01.309Z,97.8
2017-01-23T02:10:09.958Z,97.52
2017-01-23T02:11:18.603Z,96.67
2017-01-23T02:12:27.243Z,96.77
2017-01-23T02:13:35.914Z,97.24
2017-01-23T02:14:44.560Z,98.36
2017-01-23T02:15:53.232Z,98.18
2017-01-23T02:17:01.891Z,98.55
2017-01-23T02:18:10.537Z,98.46
2017-01-23T02:19:19.186Z,98.93
2017-01-23T02:20:27.837Z,98.55
2017-01-23T02:21:36.486Z,98.36
2017-01-23T02:22:45.128Z,98.55
2017-01-23T02:23:53.779Z,98.74
2017-01-23T02:25:02.426Z,98.18
2017-01-23T02:26:11.071Z,98.36
2017-01-23T02:27:20.102Z,98.27
2017-01-23T02:28:28.755Z,97.8
2017-01-23T02:29:37.396Z,98.65
2017-01-23T02:30:46.045Z,99.4
2017-01-23T02:31:54.725Z,99.12
2017-01-23T02:33:03.378Z,98.83
2017-01-23T02:34:12.028Z,99.5
2017-01-23T02:35:20.674Z,98.36
2017-01-23T02:36:29.326Z,98.36
2017-01-23T02:37:37.972Z,97.24
2017-01-23T02:38:46.620Z,97.61
2017-01-23T02:39:55.264Z,97.71
2017-01-23T02:41:03.912Z,97.33
2017-01-23T02:42:12.559Z,97.42
2017-01-23T02:43:21.200Z,97.14
2017-01-23T02:44:30.243Z,97.24
2017-01-23T02:45:38.894Z,98.08
2017-01-23T02:46:47.547Z,98.36
2017-01-23T02:47:56.195Z,98.27
2017-01-23T02:49:04.875Z,97.89
2017-01-23T02:50:13.522Z,97.33
2017-01-23T02:51:22.168Z,96.67
2017-01-23T02:52:30.816Z,96.86
2017-01-23T02:53:39.458Z,96.86
2017-01-23T02:54:48.109Z,96.67
2017-01-23T02:55:56.756Z,97.33
2017-01-23T02:57:05.405Z,97.42
2017-01-23T02:58:14.046Z,97.33
2017-01-23T02:59:22.694Z,98.36
2017-01-23T03:00:31.343Z,98.36
2017-01-23T03:01:39.987Z,98.55
2017-01-23T03:02:48.631Z,97.8
2017-01-23T03:03:57.290Z,98.08
2017-01-23T03:05:05.938Z,98.36
2017-01-23T03:06:14.598Z,98.18
2017-01-23T03:07:23.243Z,97.42
2017-01-23T03:08:31.922Z,97.71
2017-01-23T03:09:40.580Z,97.8
2017-01-23T03:10:49.233Z,97.33
2017-01-23T03:11:57.879Z,97.33
2017-01-23T03:13:06.533Z,97.71
2017-01-23T03:14:15.183Z,98.36
2017-01-23T03:15:23.827Z,97.89
2017-01-23T03:16:32.471Z,97.71
2017-01-23T03:17:41.119Z,98.32
2017-01-23T03:18:49.769Z,98.36
2017-01-23T03:19:58.413Z,97.99
2017-01-23T03:21:07.088Z,97.8
2017-01-23T03:22:15.729Z,97.33
2017-01-23T03:23:24.376Z,97.33
2017-01-23T03:24:33.021Z,97.52
2017-01-23T03:25:41.669Z,96.3
2017-01-23T03:26:50.314Z,96.48
2017-01-23T03:27:58.977Z,96.2
2017-01-23T03:29:07.625Z,96.58
2017-01-23T03:30:16.274Z,96.11
2017-01-23T03:31:24.917Z,96.48
2017-01-23T03:32:33.561Z,97.33
2017-01-23T03:33:42.207Z,97.8
2017-01-23T03:34:50.854Z,98.74
2017-01-23T03:35:59.496Z,98.93
2017-01-23T03:37:08.172Z,98.65
2017-01-23T03:38:16.820Z,98.55
2017-01-23T03:39:25.468Z,98.08
2017-01-23T03:40:34.113Z,97.61
2017-01-23T03:41:42.759Z,97.14
2017-01-23T03:42:51.407Z,96.77
2017-01-23T03:44:00.076Z,96.48
2017-01-23T03:45:08.721Z,96.3
2017-01-23T03:46:17.376Z,96.11
2017-01-23T03:47:26.032Z,96.39
2017-01-23T03:48:34.680Z,96.3
2017-01-23T03:49:43.325Z,96.58
2017-01-23T03:50:51.970Z,97.33
2017-01-23T03:52:00.621Z,97.61
2017-01-23T03:53:09.269Z,97.42
2017-01-23T03:54:17.919Z,97.42
2017-01-23T03:55:26.564Z,97.71
2017-01-23T03:56:35.209Z,97.33
2017-01-23T03:57:43.895Z,97.52
2017-01-23T03:58:52.542Z,97.61
2017-01-23T04:00:01.196Z,97.33
2017-01-23T04:01:09.842Z,97.14
2017-01-23T04:02:18.488Z,98.18
2017-01-23T04:03:27.135Z,97.99
2017-01-23T04:04:35.786Z,97.61
2017-01-23T04:05:44.435Z,97.8
2017-01-23T04:06:53.076Z,97.52
2017-01-23T04:08:01.730Z,97.61
2017-01-23T04:09:10.383Z,98.27
2017-01-23T04:10:19.033Z,97.99
2017-01-23T04:11:27.677Z,97.8
2017-01-23T04:12:36.328Z,97.89
2017-01-23T04:13:44.979Z,98.08
2017-01-23T04:14:53.625Z,97.33
2017-01-23T04:16:02.297Z,97.14
2017-01-23T04:17:10.952Z,97.33
2017-01-23T04:18:19.598Z,97.14
2017-01-23T04:19:28.244Z,97.33
2017-01-23T04:20:36.899Z,97.42
2017-01-23T04:21:45.550Z,98.18
2017-01-23T04:22:54.193Z,98.83
2017-01-23T04:24:02.841Z,98.55
2017-01-23T04:25:11.489Z,98.74
2017-01-23T04:26:20.136Z,99.21
2017-01-23T04:27:28.778Z,99.59
2017-01-23T04:28:37.427Z,99.68
2017-01-23T04:29:46.078Z,99.4
2017-01-23T04:30:54.723Z,99.12
2017-01-23T04:32:03.374Z,98.93
2017-01-23T04:33:12.026Z,98.55
2017-01-23T04:34:20.673Z,97.61
2017-01-23T04:35:29.318Z,96.67
2017-01-23T04:36:37.966Z,96.3
2017-01-23T04:37:46.625Z,96.39
2017-01-23T04:38:55.273Z,96.3
2017-01-23T04:40:03.925Z,96.95
2017-01-23T04:41:12.572Z,96.77
2017-01-23T04:42:21.241Z,96.67
2017-01-23T04:43:29.904Z,96.77
2017-01-23T04:44:38.550Z,96.11
2017-01-23T04:45:47.199Z,96.39
2017-01-23T04:46:55.855Z,96.2
2017-01-23T04:48:04.504Z,96.01
2017-01-23T04:49:13.147Z,96.3
2017-01-23T04:50:21.791Z,96.39
2017-01-23T04:51:30.431Z,96.77
2017-01-23T04:52:39.085Z,96.77
2017-01-23T04:53:47.741Z,96.86
2017-01-23T04:54:56.389Z,97.33
2017-01-23T04:56:05.033Z,97.14
2017-01-23T04:57:13.678Z,97.14
2017-01-23T04:58:22.324Z,97.14
2017-01-23T04:59:31.001Z,97.42
2017-01-23T05:00:39.649Z,97.24
2017-01-23T05:01:48.294Z,97.24
2017-01-23T05:02:56.943Z,97.33
2017-01-23T05:04:05.596Z,97.89
2017-01-23T05:05:14.243Z,98.27
2017-01-23T05:06:22.888Z,98.18
2017-01-23T05:07:31.537Z,98.55
2017-01-23T05:08:40.188Z,98.83
2017-01-23T05:09:48.831Z,98.55
2017-01-23T05:10:57.480Z,98.93
2017-01-23T05:12:06.126Z,99.68
2017-01-23T05:13:14.776Z,99.99
2017-01-23T05:14:23.423Z,99.99
2017-01-23T05:15:32.068Z,99.99
2017-01-23T05:16:40.711Z,99.99
2017-01-23T05:17:49.355Z,99.99
2017-01-23T05:18:58.000Z,99.99
2017-01-23T05:20:06.648Z,99.99
2017-01-23T05:21:15.301Z,99.99
2017-01-23T05:22:23.952Z,99.99
2017-01-23T05:23:32.599Z,99.99
2017-01-23T05:24:41.250Z,99.99
2017-01-23T05:25:49.900Z,99.99
2017-01-23T05:26:58.546Z,99.99
2017-01-23T05:28:07.197Z,99.99
2017-01-23T05:29:15.842Z,99.99
2017-01-23T05:30:24.487Z,99.99
2017-01-23T05:31:33.131Z,99.99
2017-01-23T05:32:41.779Z,99.99
2017-01-23T05:33:50.430Z,99.99
2017-01-23T05:34:59.076Z,99.99
2017-01-23T05:36:07.726Z,99.99
2017-01-23T05:37:16.382Z,99.99
2017-01-23T05:38:25.029Z,99.99
2017-01-23T05:39:33.673Z,99.99
2017-01-23T05:40:42.321Z,99.83
2017-01-23T05:41:50.971Z,99.74
2017-01-23T05:42:59.618Z,99.99
2017-01-23T05:44:08.270Z,99.93
2017-01-23T05:45:16.913Z,99.93
2017-01-23T05:46:25.568Z,99.83
2017-01-23T05:47:34.213Z,99.83
2017-01-23T05:48:42.859Z,99.83
2017-01-23T05:49:51.503Z,99.64
2017-01-23T05:51:00.150Z,99.83
2017-01-23T05:52:08.797Z,99.99
2017-01-23T05:53:17.445Z,99.83
2017-01-23T05:54:26.097Z,99.93
2017-01-23T05:55:34.745Z,99.64
2017-01-23T05:56:43.397Z,99.83
2017-01-23T05:57:52.042Z,99.64
2017-01-23T05:59:00.689Z,99.74
2017-01-23T06:00:09.337Z,99.93
2017-01-23T06:01:17.981Z,99.93
2017-01-23T06:02:26.622Z,99.74
2017-01-23T06:03:35.269Z,99.93
2017-01-23T06:04:43.915Z,99.99
2017-01-23T06:05:52.566Z,99.99
2017-01-23T06:07:01.214Z,99.99
2017-01-23T06:08:09.867Z,99.99
2017-01-23T06:09:18.523Z,99.99
2017-01-23T06:10:27.173Z,99.99
2017-01-23T06:11:35.822Z,99.99
2017-01-23T06:12:44.472Z,99.99
2017-01-23T06:13:53.121Z,99.99
2017-01-23T06:15:01.768Z,99.99
2017-01-23T06:16:10.412Z,99.99
2017-01-23T06:17:19.062Z,99.99
2017-01-23T06:18:27.712Z,99.99
2017-01-23T06:19:36.366Z,99.99
2017-01-23T06:20:45.012Z,99.99
2017-01-23T06:21:53.664Z,99.99
2017-01-23T06:23:02.336Z,99.99
2017-01-23T06:24:10.986Z,99.99
2017-01-23T06:25:19.637Z,99.99
2017-01-23T06:26:28.285Z,99.99
2017-01-23T06:27:36.933Z,99.99
2017-01-23T06:28:45.580Z,99.99
2017-01-23T06:29:54.238Z,99.99
2017-01-23T06:31:02.888Z,99.99
2017-01-23T06:32:11.534Z,99.99
2017-01-23T06:33:20.179Z,99.99
2017-01-23T06:34:28.832Z,99.99
2017-01-23T06:35:37.489Z,99.99
2017-01-23T06:36:46.169Z,99.99
2017-01-23T06:37:54.816Z,99.99
2017-01-23T06:39:03.844Z,99.99
2017-01-23T06:40:12.492Z,99.99
2017-01-23T06:41:21.138Z,99.99
2017-01-23T06:42:29.785Z,99.99
2017-01-23T06:43:38.433Z,99.99
2017-01-23T06:44:47.082Z,99.99
2017-01-23T06:45:55.751Z,99.99
2017-01-23T06:47:04.401Z,99.99
2017-01-23T06:48:13.081Z,99.99
2017-01-23T06:49:21.728Z,99.99
2017-01-23T06:50:30.375Z,99.99
2017-01-23T06:51:39.036Z,99.99
2017-01-23T06:52:47.684Z,99.99
2017-01-23T06:53:56.333Z,99.99
2017-01-23T06:55:05.079Z,99.99
2017-01-23T06:56:13.727Z,99.99
2017-01-23T06:57:22.387Z,99.99
2017-01-23T06:58:31.037Z,99.99
2017-01-23T06:59:39.683Z,99.99
2017-01-23T07:00:48.343Z,99.99
2017-01-23T07:01:56.995Z,99.99
2017-01-23T07:03:05.645Z,99.99
2017-01-23T07:04:14.290Z,99.99
2017-01-23T07:05:22.938Z,99.99
2017-01-23T07:06:31.593Z,99.99
2017-01-23T07:07:40.242Z,99.99
2017-01-23T07:08:48.894Z,99.99
2017-01-23T07:09:57.540Z,99.99
2017-01-23T07:11:06.187Z,99.99
2017-01-23T07:12:14.841Z,99.99
2017-01-23T07:13:23.491Z,99.99
2017-01-23T07:14:32.148Z,99.99
2017-01-23T07:15:40.793Z,99.99
2017-01-23T07:16:49.445Z,99.99
2017-01-23T07:17:58.095Z,99.99
2017-01-23T07:19:06.744Z,99.99
2017-01-23T07:20:15.391Z,99.99
2017-01-23T07:21:24.037Z,99.99
2017-01-23T07:22:32.690Z,99.99
2017-01-23T07:23:41.338Z,99.99
2017-01-23T07:24:49.986Z,99.99
2017-01-23T07:25:58.628Z,99.99
2017-01-23T07:27:07.286Z,99.99
2017-01-23T07:28:15.936Z,99.99
2017-01-23T07:29:24.586Z,99.99
2017-01-23T07:30:33.240Z,99.99
2017-01-23T07:31:41.886Z,99.99
2017-01-23T07:32:50.530Z,99.99
2017-01-23T07:33:59.203Z,99.99
2017-01-23T07:35:07.876Z,99.99
2017-01-23T07:36:16.528Z,99.99
2017-01-23T07:37:25.174Z,99.99
2017-01-23T07:38:33.819Z,99.99
2017-01-23T07:39:42.477Z,99.99
2017-01-23T07:40:51.155Z,99.99
2017-01-23T07:41:59.802Z,99.99
2017-01-23T07:43:08.870Z,99.99
2017-01-23T07:44:17.521Z,99.99
2017-01-23T07:45:26.171Z,99.99
2017-01-23T07:46:34.826Z,99.99
2017-01-23T07:47:43.478Z,99.99
2017-01-23T07:48:52.130Z,99.99
2017-01-23T07:50:00.775Z,99.99
2017-01-23T07:51:09.446Z,99.99
2017-01-23T07:52:18.099Z,99.99
2017-01-23T07:53:26.751Z,99.99
2017-01-23T07:54:35.400Z,99.99
2017-01-23T07:55:44.054Z,99.99
2017-01-23T07:56:52.707Z,99.99
2017-01-23T07:58:01.357Z,99.99
2017-01-23T07:59:10.004Z,99.99
2017-01-23T08:00:18.656Z,99.99
2017-01-23T08:01:27.301Z,99.99
2017-01-23T08:02:35.949Z,99.99
2017-01-23T08:03:44.605Z,99.99
2017-01-23T08:04:53.265Z,99.99
2017-01-23T08:06:01.917Z,99.99
2017-01-23T08:07:10.570Z,99.99
2017-01-23T08:08:19.210Z,99.99
2017-01-23T08:09:27.863Z,99.99
2017-01-23T08:10:36.517Z,99.99
2017-01-23T08:11:45.218Z,99.99
2017-01-23T08:12:53.864Z,99.99
2017-01-23T08:14:02.514Z,99.99
2017-01-23T08:15:11.167Z,99.99
2017-01-23T08:16:19.817Z,99.99
2017-01-23T08:17:28.461Z,99.99
2017-01-23T08:18:37.144Z,99.99
2017-01-23T08:19:45.797Z,99.99
2017-01-23T08:20:54.460Z,99.99
2017-01-23T08:22:03.107Z,99.99
2017-01-23T08:23:11.759Z,99.99
2017-01-23T08:24:20.407Z,99.99
2017-01-23T08:25:29.058Z,99.99
2017-01-23T08:26:37.706Z,99.99
2017-01-23T08:27:46.354Z,99.99
2017-01-23T08:28:55.000Z,99.99
2017-01-23T08:30:03.648Z,99.99
2017-01-23T08:31:12.303Z,99.99
2017-01-23T08:32:20.957Z,99.99
2017-01-23T08:33:29.604Z,99.99
2017-01-23T08:34:38.250Z,99.99
2017-01-23T08:35:46.899Z,99.99
2017-01-23T08:36:55.553Z,99.99
2017-01-23T08:38:04.204Z,99.99
2017-01-23T08:39:12.859Z,99.99
2017-01-23T08:40:21.507Z,99.99
2017-01-23T08:41:30.160Z,99.99
2017-01-23T08:42:38.803Z,99.99
2017-01-23T08:43:47.450Z,99.99
2017-01-23T08:44:56.100Z,99.99
2017-01-23T08:46:04.752Z,99.99
2017-01-23T08:47:13.408Z,99.99
2017-01-23T08:48:22.063Z,99.99
2017-01-23T08:49:31.096Z,99.99
2017-01-23T08:50:39.752Z,99.99
2017-01-23T08:51:48.405Z,99.99
2017-01-23T08:52:57.053Z,99.99
2017-01-23T08:54:05.703Z,99.99
2017-01-23T08:55:14.351Z,99.99
2017-01-23T08:56:22.999Z,99.99
2017-01-23T08:57:31.647Z,99.99
2017-01-23T08:58:40.292Z,99.99
2017-01-23T08:59:48.939Z,99.99
2017-01-23T09:00:57.595Z,99.99
2017-01-23T09:02:06.246Z,99.99
2017-01-23T09:03:14.891Z,99.99
2017-01-23T09:04:23.538Z,99.99
2017-01-23T09:05:32.184Z,99.99
2017-01-23T09:06:40.835Z,99.99
2017-01-23T09:07:49.483Z,99.99
2017-01-23T09:08:58.137Z,99.99
2017-01-23T09:10:06.793Z,99.99
2017-01-23T09:11:15.440Z,99.99
2017-01-23T09:12:24.085Z,99.99
2017-01-23T09:13:32.733Z,99.99
2017-01-23T09:14:41.382Z,99.99
2017-01-23T09:15:50.036Z,99.99
2017-01-23T09:16:58.686Z,99.99
2017-01-23T09:18:07.335Z,99.99
2017-01-23T09:19:15.988Z,99.99
2017-01-23T09:20:24.639Z,99.99
2017-01-23T09:21:33.289Z,99.99
2017-01-23T09:22:41.936Z,99.99
2017-01-23T09:23:50.589Z,99.99
2017-01-23T09:24:59.243Z,99.99
2017-01-23T09:26:07.902Z,99.99
2017-01-23T09:27:16.549Z,99.99
2017-01-23T09:28:25.199Z,99.99
2017-01-23T09:29:33.848Z,99.99
2017-01-23T09:30:42.497Z,99.99
2017-01-23T09:31:51.169Z,99.99
2017-01-23T09:32:59.823Z,99.99
2017-01-23T09:34:08.477Z,99.99
2017-01-23T09:35:17.127Z,99.99
2017-01-23T09:36:25.778Z,99.99
2017-01-23T09:37:34.437Z,99.99
2017-01-23T09:38:43.093Z,99.99
2017-01-23T09:39:51.743Z,99.99
2017-01-23T09:41:00.399Z,99.99
2017-01-23T09:42:09.055Z,99.99
2017-01-23T09:43:17.711Z,99.99
2017-01-23T09:44:26.395Z,99.99
2017-01-23T09:45:35.043Z,99.99
2017-01-23T09:46:43.695Z,99.99
2017-01-23T09:47:52.346Z,99.99
2017-01-23T09:49:00.993Z,99.99
2017-01-23T09:50:09.643Z,99.99
2017-01-23T09:51:18.298Z,99.99
2017-01-23T09:52:26.953Z,99.99
2017-01-23T09:53:35.605Z,99.99
2017-01-23T09:54:44.262Z,99.99
2017-01-23T09:55:52.912Z,99.99
2017-01-23T09:57:01.572Z,99.99
2017-01-23T09:58:10.225Z,99.99
2017-01-23T09:59:18.884Z,99.99
2017-01-23T10:00:27.529Z,99.99
2017-01-23T10:01:36.184Z,99.99
2017-01-23T10:02:44.834Z,99.99
2017-01-23T10:03:53.488Z,99.99
2017-01-23T10:05:02.141Z,99.99
2017-01-23T10:06:10.796Z,99.99
2017-01-23T10:07:19.446Z,99.99
2017-01-23T10:08:28.101Z,99.99
2017-01-23T10:09:36.759Z,99.99
2017-01-23T10:10:45.413Z,99.99
2017-01-23T10:11:54.062Z,99.99
2017-01-23T10:13:02.742Z,99.99
2017-01-23T10:14:11.396Z,99.99
2017-01-23T10:15:20.055Z,99.99
2017-01-23T10:16:28.709Z,99.99
2017-01-23T10:17:37.369Z,99.99
2017-01-23T10:18:46.017Z,99.99
2017-01-23T10:19:54.663Z,99.99
2017-01-23T10:21:03.317Z,99.99
2017-01-23T10:22:11.967Z,99.99
2017-01-23T10:23:20.622Z,99.99
2017-01-23T10:24:29.273Z,99.99
2017-01-23T10:25:37.925Z,99.99
2017-01-23T10:26:46.583Z,99.99
2017-01-23T10:27:55.231Z,99.99
2017-01-23T10:29:03.890Z,99.99
2017-01-23T10:30:12.568Z,99.99
2017-01-23T10:31:21.219Z,99.99
2017-01-23T10:32:29.871Z,99.99
2017-01-23T10:33:38.521Z,99.99
2017-01-23T10:34:47.173Z,99.99
2017-01-23T10:35:55.822Z,99.99
2017-01-23T10:37:04.474Z,99.99
2017-01-23T10:38:13.126Z,99.99
2017-01-23T10:39:21.780Z,99.99
2017-01-23T10:40:30.444Z,99.99
2017-01-23T10:41:39.106Z,99.99
2017-01-23T10:42:47.755Z,99.99
2017-01-23T10:43:56.410Z,99.99
2017-01-23T10:45:05.062Z,99.99
2017-01-23T10:46:13.718Z,99.99
2017-01-23T10:47:22.399Z,99.99
2017-01-23T10:48:31.054Z,99.99
2017-01-23T10:49:39.703Z,99.99
2017-01-23T10:50:48.355Z,99.99
2017-01-23T10:51:57.004Z,99.99
2017-01-23T10:53:05.654Z,99.99
2017-01-23T10:54:14.301Z,99.99
2017-01-23T10:55:22.957Z,99.99
2017-01-23T10:56:31.613Z,99.99
2017-01-23T10:57:40.262Z,99.99
2017-01-23T10:58:48.914Z,99.99
2017-01-23T10:59:57.565Z,99.99
2017-01-23T11:01:06.215Z,99.99
2017-01-23T11:02:14.865Z,99.99
2017-01-23T11:03:23.541Z,99.99
2017-01-23T11:04:32.194Z,99.99
2017-01-23T11:05:40.848Z,99.99
2017-01-23T11:06:49.496Z,99.99
2017-01-23T11:07:58.147Z,99.99
2017-01-23T11:09:06.796Z,99.99
2017-01-23T11:10:15.450Z,99.99
2017-01-23T11:11:24.101Z,99.99
2017-01-23T11:12:32.757Z,99.99
2017-01-23T11:13:41.413Z,99.99
2017-01-23T11:14:50.063Z,99.99
2017-01-23T11:15:58.720Z,99.99
2017-01-23T11:17:07.381Z,99.99
2017-01-23T11:18:16.031Z,99.99
2017-01-23T11:19:24.680Z,99.99
2017-01-23T11:20:33.335Z,99.99
2017-01-23T11:21:41.979Z,99.99
2017-01-23T11:22:50.638Z,99.99
2017-01-23T11:23:59.284Z,99.99
2017-01-23T11:25:07.937Z,99.99
2017-01-23T11:26:16.591Z,99.99
2017-01-23T11:27:25.283Z,99.99
2017-01-23T11:28:34.311Z,99.99
2017-01-23T11:29:42.959Z,99.99
2017-01-23T11:30:51.606Z,99.99
2017-01-23T11:32:00.256Z,99.99
2017-01-23T11:33:08.920Z,99.99
2017-01-23T11:34:17.574Z,99.99
2017-01-23T11:35:26.230Z,99.99
2017-01-23T11:36:34.889Z,99.99
2017-01-23T11:37:43.541Z,99.99
2017-01-23T11:38:52.196Z,99.99
2017-01-23T11:40:00.850Z,99.99
2017-01-23T11:41:09.501Z,99.99
2017-01-23T11:42:18.159Z,99.99
2017-01-23T11:43:26.805Z,99.99
2017-01-23T11:44:35.460Z,99.99
2017-01-23T11:45:44.114Z,99.99
2017-01-23T11:46:52.765Z,99.99
2017-01-23T11:48:01.422Z,99.99
2017-01-23T11:49:10.074Z,99.99
2017-01-23T11:50:18.720Z,99.99
2017-01-23T11:51:27.368Z,99.99
2017-01-23T11:52:36.030Z,99.99
2017-01-23T11:53:44.709Z,99.99
2017-01-23T11:54:53.362Z,99.99
2017-01-23T11:56:02.025Z,99.99
2017-01-23T11:57:10.683Z,99.99
2017-01-23T11:58:19.330Z,99.99
2017-01-23T11:59:27.984Z,99.99
2017-01-23T12:00:36.635Z,99.99
2017-01-23T12:01:45.283Z,99.99
2017-01-23T12:02:53.938Z,99.99
2017-01-23T12:04:02.590Z,99.99
2017-01-23T12:05:11.240Z,99.99
2017-01-23T12:06:19.903Z,99.99
2017-01-23T12:07:28.551Z,99.99
2017-01-23T12:08:37.211Z,99.99
2017-01-23T12:09:45.872Z,99.99
2017-01-23T12:10:54.516Z,99.99
2017-01-23T12:12:03.175Z,99.99
2017-01-23T12:13:11.824Z,99.99
2017-01-23T12:14:20.472Z,99.99
2017-01-23T12:15:29.123Z,99.99
2017-01-23T12:16:37.778Z,99.99
2017-01-23T12:17:46.425Z,99.99
2017-01-23T12:18:55.077Z,99.99
2017-01-23T12:20:03.733Z,99.99
2017-01-23T12:21:12.385Z,99.99
2017-01-23T12:22:21.038Z,99.99
2017-01-23T12:23:29.685Z,99.99
2017-01-23T12:24:38.336Z,99.99
2017-01-23T12:25:46.988Z,99.99
2017-01-23T12:26:55.644Z,99.99
2017-01-23T12:28:04.336Z,99.99
2017-01-23T12:29:12.984Z,99.99
2017-01-23T12:30:21.654Z,99.99
2017-01-23T12:31:30.306Z,99.99
2017-01-23T12:32:38.954Z,99.99
2017-01-23T12:33:47.605Z,99.99
2017-01-23T12:34:56.281Z,99.99
2017-01-23T12:36:04.939Z,99.99
2017-01-23T12:37:13.594Z,99.99
2017-01-23T12:38:22.246Z,99.99
2017-01-23T12:39:30.903Z,99.99
2017-01-23T12:40:39.551Z,99.99
2017-01-23T12:41:48.207Z,99.99
2017-01-23T12:42:56.861Z,99.99
2017-01-23T12:44:05.512Z,99.99
2017-01-23T12:45:14.160Z,99.99
2017-01-23T12:46:22.809Z,99.99
2017-01-23T12:47:31.459Z,99.99
2017-01-23T12:48:40.108Z,99.99
2017-01-23T12:49:48.758Z,99.99
2017-01-23T12:50:57.412Z,99.99
2017-01-23T12:52:06.058Z,99.99
2017-01-23T12:53:14.711Z,99.99
2017-01-23T12:54:23.366Z,99.99
2017-01-23T12:55:32.021Z,99.99
2017-01-23T12:56:40.674Z,99.99
2017-01-23T12:57:49.329Z,99.99
2017-01-23T12:58:58.374Z,99.99
2017-01-23T13:00:07.035Z,99.99
2017-01-23T13:01:15.691Z,99.99
2017-01-23T13:02:24.346Z,99.99
2017-01-23T13:03:32.995Z,99.99
2017-01-23T13:04:41.642Z,99.99
2017-01-23T13:05:50.298Z,99.99
2017-01-23T13:06:58.953Z,99.99
2017-01-23T13:08:07.609Z,99.99
2017-01-23T13:09:16.272Z,99.99
2017-01-23T13:10:24.926Z,99.99
2017-01-23T13:11:33.585Z,99.99
2017-01-23T13:12:42.237Z,99.99
2017-01-23T13:13:50.890Z,99.99
2017-01-23T13:14:59.540Z,99.99
2017-01-23T13:16:08.197Z,99.99
2017-01-23T13:17:16.851Z,99.99
2017-01-23T13:18:25.503Z,99.99
2017-01-23T13:19:34.157Z,99.99
2017-01-23T13:20:42.808Z,99.99
2017-01-23T13:21:51.495Z,99.99
2017-01-23T13:23:00.150Z,99.99
2017-01-23T13:24:08.803Z,99.99
2017-01-23T13:25:17.458Z,99.99
2017-01-23T13:26:26.105Z,99.99
2017-01-23T13:27:34.755Z,99.99
2017-01-23T13:28:43.417Z,99.99
2017-01-23T13:29:52.065Z,99.99
2017-01-23T13:31:00.722Z,99.99
2017-01-23T13:32:09.400Z,99.99
2017-01-23T13:33:18.046Z,99.99
2017-01-23T13:34:26.707Z,99.99
2017-01-23T13:35:35.364Z,99.99
2017-01-23T13:36:44.050Z,99.99
2017-01-23T13:37:52.705Z,99.99
2017-01-23T13:39:01.357Z,99.99
2017-01-23T13:40:10.004Z,99.99
2017-01-23T13:41:18.669Z,99.99
2017-01-23T13:42:27.319Z,99.99
2017-01-23T13:43:36.354Z,99.99
2017-01-23T13:44:45.023Z,99.99
2017-01-23T13:45:53.678Z,99.99
2017-01-23T13:47:02.331Z,99.99
2017-01-23T13:48:10.981Z,99.99
2017-01-23T13:49:19.628Z,99.99
2017-01-23T13:50:28.284Z,99.99
2017-01-23T13:51:36.934Z,99.99
2017-01-23T13:52:45.588Z,99.99
2017-01-23T13:53:54.239Z,99.99
2017-01-23T13:55:02.910Z,99.99
2017-01-23T13:56:11.569Z,99.99
2017-01-23T13:57:20.225Z,99.99
2017-01-23T13:58:28.901Z,99.99
2017-01-23T13:59:37.576Z,99.99
2017-01-23T14:00:46.228Z,99.99
2017-01-23T14:01:54.884Z,99.99
2017-01-23T14:03:03.536Z,99.99
2017-01-23T14:04:12.200Z,99.99
2017-01-23T14:05:20.862Z,99.99
2017-01-23T14:06:29.523Z,99.99
2017-01-23T14:07:38.178Z,99.99
2017-01-23T14:08:46.838Z,99.99
2017-01-23T14:09:55.487Z,99.99
2017-01-23T14:11:04.135Z,99.99
2017-01-23T14:12:12.787Z,99.99
2017-01-23T14:13:21.446Z,99.99
2017-01-23T14:14:30.104Z,99.99
2017-01-23T14:15:38.757Z,99.99
2017-01-23T14:16:47.409Z,99.99
2017-01-23T14:17:56.062Z,99.99
2017-01-23T14:19:04.709Z,99.99
2017-01-23T14:20:13.361Z,99.99
2017-01-23T14:21:22.014Z,99.99
2017-01-23T14:22:30.665Z,99.99
2017-01-23T14:23:39.319Z,99.99
2017-01-23T14:24:47.970Z,99.99
2017-01-23T14:25:56.620Z,99.99
2017-01-23T14:27:05.273Z,99.99
2017-01-23T14:28:13.929Z,99.99
2017-01-23T14:29:22.577Z,99.99
2017-01-23T14:30:31.233Z,99.99
2017-01-23T14:31:39.906Z,99.99
2017-01-23T14:32:48.554Z,99.99
2017-01-23T14:33:57.204Z,99.99
2017-01-23T14:35:05.859Z,99.99
2017-01-23T14:36:14.508Z,99.99
2017-01-23T14:37:23.157Z,99.99
2017-01-23T14:38:31.810Z,99.99
2017-01-23T14:39:40.459Z,99.99
2017-01-23T14:40:49.115Z,99.99
2017-01-23T14:41:57.771Z,99.99
2017-01-23T14:43:06.424Z,99.99
2017-01-23T14:44:15.082Z,99.99
2017-01-23T14:45:23.734Z,99.99